createdAt,value
2023-05-22T10:28:12.374Z,4.82
2023-05-22T10:30:50.657Z,4.72
2023-05-22T10:34:02.403Z,5.78
2023-05-22T10:36:47.663Z,3.25
2023-05-22T10:39:39.038Z,4.50
2023-05-22T10:42:09.586Z,4.22
2023-05-22T10:44:43.445Z,3.92
2023-05-22T10:47:13.942Z,4.72
2023-05-22T10:49:47.945Z,4.30
2023-05-22T10:52:22.079Z,3.58
2023-05-22T10:54:53.869Z,4.38
2023-05-22T10:57:27.736Z,3.60
2023-05-22T11:00:10.587Z,4.68
2023-05-22T11:02:46.276Z,4.47
2023-05-22T11:05:39.441Z,2.97
2023-05-22T11:08:14.941Z,3.80
2023-05-22T11:10:59.373Z,3.45
2023-05-22T11:13:32.248Z,2.95
2023-05-22T11:16:08.045Z,3.83
2023-05-22T11:18:38.706Z,4.40
2023-05-22T11:21:09.176Z,4.20
2023-05-22T11:23:40.375Z,6.70
2023-05-22T11:26:27.965Z,4.53
2023-05-22T11:28:58.994Z,5.32
2023-05-22T11:31:33.027Z,4.55
2023-05-22T11:34:03.894Z,5.15
2023-05-22T11:36:34.587Z,4.30
2023-05-22T11:39:05.209Z,5.95
2023-05-22T11:41:36.719Z,3.35
2023-05-22T11:44:11.559Z,5.20
2023-05-22T11:46:44.847Z,3.45
2023-05-22T11:49:15.248Z,3.55
2023-05-22T11:51:45.906Z,3.58
2023-05-22T11:54:16.556Z,5.95
2023-05-22T11:56:46.974Z,3.20
2023-05-22T11:59:17.525Z,4.18
2023-05-22T12:01:52.549Z,3.33
2023-05-22T12:04:22.997Z,4.22
2023-05-22T12:06:53.704Z,3.72
2023-05-22T12:09:24.199Z,3.78
2023-05-22T12:11:54.620Z,3.78
2023-05-22T12:14:28.941Z,3.10
2023-05-22T12:17:02.197Z,5.72
2023-05-22T12:19:32.691Z,6.40
2023-05-22T12:22:03.043Z,3.63
2023-05-22T12:24:41.152Z,2.50
2023-05-22T12:27:12.892Z,5.55
2023-05-22T12:29:43.648Z,3.67
2023-05-22T12:32:18.456Z,3.53
2023-05-22T12:34:50.501Z,4.68
2023-05-22T12:37:22.950Z,4.88
2023-05-22T12:39:59.868Z,3.13
2023-05-22T12:42:31.251Z,3.90
2023-05-22T12:45:02.453Z,4.35
2023-05-22T12:47:36.195Z,5.03
2023-05-22T12:50:06.722Z,4.85
2023-05-22T12:52:37.404Z,4.72
2023-05-22T12:55:08.418Z,3.33
2023-05-22T12:57:38.909Z,3.83
2023-05-22T13:00:10.722Z,5.13
2023-05-22T13:02:43.912Z,3.08
2023-05-22T13:07:44.648Z,3.92
2023-05-22T13:10:14.900Z,3.45
2023-05-22T13:12:47.157Z,3.92
2023-05-22T13:15:17.530Z,3.53
2023-05-22T13:17:50.319Z,6.22
2023-05-22T13:20:20.547Z,2.85
2023-05-22T13:22:51.008Z,3.30
2023-05-22T13:25:21.785Z,3.47
2023-05-22T13:27:52.271Z,6.82
2023-05-22T13:30:22.847Z,3.42
2023-05-22T13:32:55.863Z,3.85
2023-05-22T13:35:26.516Z,3.17
2023-05-22T13:37:56.926Z,8.05
2023-05-22T13:40:27.784Z,2.58
2023-05-22T13:42:58.294Z,3.47
2023-05-22T13:45:28.753Z,3.90
2023-05-22T13:48:01.720Z,5.13
2023-05-22T13:50:32.314Z,6.82
2023-05-22T13:53:02.676Z,3.97
2023-05-22T13:55:33.027Z,3.72
2023-05-22T13:58:03.880Z,4.28
2023-05-22T14:00:34.428Z,6.32
2023-05-22T14:03:07.824Z,6.95
2023-05-22T14:05:38.578Z,4.75
2023-05-22T14:08:09.065Z,3.30
2023-05-22T14:10:39.768Z,3.08
2023-05-22T14:13:10.184Z,3.90
2023-05-22T14:15:40.752Z,3.38
2023-05-22T14:18:13.721Z,3.00
2023-05-22T14:20:44.101Z,4.93
2023-05-22T14:23:14.809Z,3.03
2023-05-22T14:25:45.658Z,5.43
2023-05-22T14:28:23.763Z,3.30
2023-05-22T14:30:54.215Z,4.20
2023-05-22T14:33:27.259Z,4.55
2023-05-22T14:35:57.624Z,5.82
2023-05-22T14:38:30.038Z,3.58
2023-05-22T14:41:00.657Z,6.37
2023-05-22T14:43:31.121Z,3.90
2023-05-22T14:46:01.636Z,3.22
2023-05-22T14:48:34.352Z,5.30
2023-05-22T14:51:04.747Z,4.10
2023-05-22T14:53:35.175Z,5.00
2023-05-22T14:56:05.620Z,3.38
2023-05-22T14:58:36.020Z,3.63
2023-05-22T15:01:06.388Z,3.45
2023-05-22T15:03:39.354Z,3.42
2023-05-22T15:06:09.949Z,2.90
2023-05-22T15:08:40.289Z,5.63
2023-05-22T15:11:10.658Z,4.88
2023-05-22T15:13:41.007Z,4.47
2023-05-22T15:16:11.549Z,6.15
2023-05-22T15:18:44.760Z,4.57
2023-05-22T15:21:15.402Z,4.05
2023-05-22T15:23:45.787Z,6.38
2023-05-22T15:26:16.157Z,3.53
2023-05-22T15:28:46.524Z,4.95
2023-05-22T15:31:16.965Z,2.88
2023-05-22T15:33:50.046Z,2.97
2023-05-22T15:36:20.421Z,3.75
2023-05-22T15:38:50.853Z,3.20
2023-05-22T15:41:21.763Z,6.00
2023-05-22T15:43:52.148Z,5.47
2023-05-22T15:46:22.636Z,3.78
2023-05-22T15:48:55.606Z,4.65
2023-05-22T15:51:25.974Z,4.18
2023-05-22T15:53:56.351Z,4.13
2023-05-22T15:56:27.009Z,3.63
2023-05-22T15:58:57.348Z,2.95
2023-05-22T16:01:29.632Z,6.07
2023-05-22T16:04:02.609Z,4.37
2023-05-22T16:06:33.074Z,5.70
2023-05-22T16:09:03.461Z,3.22
2023-05-22T16:11:33.840Z,3.13
2023-05-22T16:14:04.206Z,4.68
2023-05-22T16:16:34.680Z,5.93
2023-05-22T16:19:07.715Z,4.72
2023-05-22T16:21:38.237Z,2.60
2023-05-22T16:24:10.068Z,3.53
2023-05-22T16:26:40.497Z,3.42
2023-05-22T16:29:11.040Z,4.35
2023-05-22T16:31:41.938Z,3.65
2023-05-22T16:34:15.248Z,3.30
2023-05-22T16:39:16.172Z,7.28
2023-05-22T16:41:46.582Z,3.40
2023-05-22T16:44:16.968Z,3.20
2023-05-22T16:46:48.889Z,5.30
2023-05-22T16:49:22.099Z,5.07
2023-05-22T16:51:52.189Z,4.20
2023-05-22T16:54:22.530Z,3.10
2023-05-22T16:56:52.980Z,3.55
2023-05-22T16:59:23.399Z,4.65
2023-05-22T17:01:53.831Z,3.35
2023-05-22T17:04:26.776Z,3.28
2023-05-22T17:06:58.813Z,6.18
2023-05-22T17:09:29.954Z,4.10
2023-05-22T17:12:00.316Z,4.25
2023-05-22T17:14:31.586Z,5.03
2023-05-22T17:17:01.922Z,5.53
2023-05-22T17:19:35.161Z,4.85
2023-05-22T17:24:35.913Z,12.70
2023-05-22T17:27:06.841Z,7.35
2023-05-22T17:29:37.296Z,8.20
2023-05-22T17:32:08.184Z,3.58
2023-05-22T17:34:41.224Z,6.38
2023-05-22T17:37:11.440Z,4.00
2023-05-22T17:39:41.890Z,3.22
2023-05-22T17:42:12.282Z,4.15
2023-05-22T17:44:42.677Z,4.07
2023-05-22T17:47:13.449Z,4.80
2023-05-22T17:49:46.563Z,3.88
2023-05-22T17:52:16.924Z,7.03
2023-05-22T17:54:47.390Z,5.80
2023-05-22T17:57:17.779Z,6.18
2023-05-22T17:59:48.165Z,6.53
2023-05-22T18:02:18.616Z,4.05
2023-05-22T18:04:51.609Z,5.10
2023-05-22T18:07:21.999Z,4.13
2023-05-22T18:09:52.650Z,6.03
2023-05-22T18:12:31.068Z,3.85
2023-05-22T18:15:02.236Z,7.28
2023-05-22T18:17:33.904Z,4.70
2023-05-22T18:20:08.502Z,5.03
2023-05-22T18:22:41.283Z,5.18
2023-05-22T18:25:12.769Z,4.07
2023-05-22T18:27:43.194Z,4.75
2023-05-22T18:30:13.846Z,4.28
2023-05-22T18:32:44.264Z,5.10
2023-05-22T18:35:17.358Z,6.03
2023-05-22T18:37:47.775Z,9.07
2023-05-22T18:40:18.133Z,5.05
2023-05-22T18:42:48.512Z,8.23
2023-05-22T18:45:18.970Z,5.82
2023-05-22T18:47:49.419Z,7.32
2023-05-22T18:50:23.657Z,7.07
2023-05-22T18:52:54.307Z,5.78
2023-05-22T18:55:24.959Z,5.15
2023-05-22T18:57:55.346Z,6.72
2023-05-22T19:00:25.816Z,4.32
2023-05-22T19:02:56.486Z,6.25
2023-05-22T19:05:29.545Z,8.00
2023-05-22T19:07:59.950Z,5.05
2023-05-22T19:10:30.354Z,6.10
2023-05-22T19:13:00.766Z,4.57
2023-05-22T19:15:31.133Z,8.48
2023-05-22T19:18:01.543Z,6.85
2023-05-22T19:20:34.595Z,6.65
2023-05-22T19:23:06.719Z,5.40
2023-05-22T19:25:36.809Z,5.30
2023-05-22T19:28:07.269Z,10.55
2023-05-22T19:30:37.397Z,6.28
2023-05-22T19:33:09.023Z,5.70
2023-05-22T19:35:42.205Z,5.18
2023-05-22T19:38:12.673Z,8.70
2023-05-22T19:40:43.534Z,6.03
2023-05-22T19:43:14.111Z,6.72
2023-05-22T19:45:45.509Z,7.05
2023-05-22T19:48:15.909Z,6.85
2023-05-22T19:50:49.004Z,8.15
2023-05-22T19:53:19.372Z,9.63
2023-05-22T19:55:50.121Z,5.70
2023-05-22T19:58:20.580Z,6.85
2023-05-22T20:00:51.356Z,5.10
2023-05-22T20:03:23.442Z,4.93
2023-05-22T20:05:57.270Z,6.13
2023-05-22T20:10:57.834Z,7.78
2023-05-22T20:13:28.192Z,7.05
2023-05-22T20:15:58.690Z,7.82
2023-05-22T20:18:30.018Z,6.07
2023-05-22T20:21:02.955Z,7.13
2023-05-22T20:23:33.691Z,6.87
2023-05-22T20:26:04.132Z,8.93
2023-05-22T20:28:34.783Z,6.57
2023-05-22T20:31:06.055Z,8.43
2023-05-22T20:33:36.218Z,9.50
2023-05-22T20:36:09.573Z,8.23
2023-05-22T20:38:42.686Z,8.38
2023-05-22T20:41:13.092Z,7.63
2023-05-22T20:43:44.709Z,7.68
2023-05-22T20:46:14.925Z,9.68
2023-05-22T20:48:48.305Z,7.20
2023-05-22T20:51:21.197Z,8.05
2023-05-22T20:53:51.652Z,9.63
2023-05-22T20:56:21.778Z,8.07
2023-05-22T20:58:52.182Z,8.88
2023-05-22T21:01:22.453Z,7.32
2023-05-22T21:03:52.872Z,6.82
2023-05-22T21:06:25.938Z,10.40
2023-05-22T21:08:59.949Z,5.95
2023-05-22T21:11:30.564Z,5.75
2023-05-22T21:14:00.679Z,7.30
2023-05-22T21:16:30.791Z,6.93
2023-05-22T21:19:00.986Z,12.15
2023-05-22T21:21:33.972Z,6.70
2023-05-22T21:24:04.079Z,10.37
2023-05-22T21:26:34.421Z,9.32
2023-05-22T21:29:05.505Z,9.23
2023-05-22T21:31:36.070Z,16.90
2023-05-22T21:34:06.559Z,7.13
2023-05-22T21:36:39.273Z,6.63
2023-05-22T21:39:09.462Z,7.38
2023-05-22T21:41:39.832Z,7.85
2023-05-22T21:44:10.773Z,6.07
2023-05-22T21:46:40.876Z,7.95
2023-05-22T21:49:11.058Z,10.48
2023-05-22T21:51:43.749Z,6.65
2023-05-22T21:54:14.101Z,6.18
2023-05-22T21:56:44.152Z,10.00
2023-05-22T21:59:14.330Z,7.00
2023-05-22T22:01:44.499Z,7.35
2023-05-22T22:04:14.689Z,8.10
2023-05-22T22:06:47.455Z,8.13
2023-05-22T22:09:17.517Z,10.32
2023-05-22T22:11:48.802Z,7.80
2023-05-22T22:14:18.907Z,8.35
2023-05-22T22:16:50.804Z,7.07
2023-05-22T22:19:21.315Z,11.13
2023-05-22T22:21:54.270Z,10.18
2023-05-22T22:24:24.542Z,8.18
2023-05-22T22:26:55.115Z,11.13
2023-05-22T22:29:25.198Z,9.02
2023-05-22T22:31:55.677Z,9.02
2023-05-22T22:34:25.840Z,10.10
2023-05-22T22:36:58.482Z,11.32
2023-05-22T22:39:29.240Z,6.88
2023-05-22T22:42:04.271Z,8.02
2023-05-22T22:44:34.834Z,10.80
2023-05-22T22:47:05.077Z,10.15
2023-05-22T22:49:35.441Z,9.48
2023-05-22T22:52:08.630Z,9.18
2023-05-22T22:54:38.904Z,9.02
2023-05-22T22:57:09.567Z,10.05
2023-05-22T22:59:39.586Z,11.55
2023-05-22T23:02:09.728Z,11.85
2023-05-22T23:04:39.989Z,9.93
2023-05-22T23:07:12.747Z,8.68
2023-05-22T23:09:42.912Z,9.40
2023-05-22T23:12:12.984Z,8.65
2023-05-22T23:14:43.078Z,10.98
2023-05-22T23:17:13.287Z,9.57
2023-05-22T23:19:43.416Z,11.43
2023-05-22T23:22:16.070Z,9.15
2023-05-22T23:24:46.159Z,9.10
2023-05-22T23:27:16.259Z,9.77
2023-05-22T23:29:46.324Z,9.48
2023-05-22T23:32:16.509Z,11.57
2023-05-22T23:34:46.642Z,10.82
2023-05-22T23:37:19.317Z,13.80
2023-05-22T23:39:49.400Z,11.98
2023-05-22T23:42:20.060Z,9.75
2023-05-22T23:44:50.179Z,9.50
2023-05-22T23:47:20.244Z,8.10
2023-05-22T23:49:50.354Z,9.95
2023-05-22T23:52:23.048Z,9.68
2023-05-22T23:54:53.174Z,8.23
2023-05-22T23:57:23.333Z,8.88
2023-05-22T23:59:53.521Z,9.90
